Time;durP1;ratioP1;P1;durP2;ratioP2;P2;SDS_P1;SDS_P2;PMS_P1;PMS_P2;Temp;Humidity;BMP_temperature;BMP_pressure;BME280_temperature;BME280_humidity;BME280_pressure;Samples;Min_cycle;Max_cycle;Signal;HPM_P1;HPM_P2
2023/03/19 00:00:22;;;;;;;3.97;2.10;;;9.50;99.90;;;-144.05;64.15;56914.69;5033234;28;20037;-82
2023/03/19 00:02:50;;;;;;;5.75;2.33;;;9.70;99.90;;;-144.05;62.96;56904.06;5033315;28;20409;-82
2023/03/19 00:05:18;;;;;;;8.50;2.25;;;9.90;99.90;;;-144.05;61.70;56906.19;5015606;28;20108;-80
2023/03/19 00:07:44;;;;;;;12.90;3.08;;;10.10;99.90;;;-144.05;61.42;56895.56;5015151;28;20088;-80
2023/03/19 00:10:11;;;;;;;6.90;2.88;;;10.00;99.90;;;-144.05;61.89;56916.81;5032721;28;20029;-79
2023/03/19 00:12:36;;;;;;;4.43;2.25;;;9.90;99.90;;;-144.05;61.94;56897.69;5032921;28;20033;-81
2023/03/19 00:15:03;;;;;;;6.25;2.10;;;9.90;99.90;;;-144.05;61.42;56882.81;5015252;28;20052;-79
2023/03/19 00:17:29;;;;;;;4.88;2.33;;;10.10;99.90;;;-144.05;61.10;56908.31;5033145;28;20135;-81
2023/03/19 00:19:55;;;;;;;4.97;2.22;;;10.20;99.90;;;-144.05;60.64;56912.56;5032904;28;20032;-81
2023/03/19 00:22:21;;;;;;;8.98;2.30;;;10.30;99.90;;;-144.05;60.29;56910.44;5033179;28;20025;-80
2023/03/19 00:24:47;;;;;;;4.03;2.05;;;10.30;99.90;;;-144.05;60.19;56897.69;5033369;28;20416;-80
2023/03/19 00:27:13;;;;;;;4.85;2.03;;;10.30;99.90;;;-144.05;59.99;56904.06;5019384;28;20029;-80
2023/03/19 00:29:39;;;;;;;5.65;2.30;;;10.30;99.90;;;-144.05;59.82;56908.31;5036453;28;20112;-79
2023/03/19 00:32:06;;;;;;;5.63;2.38;;;10.40;99.90;;;-144.05;59.95;56887.06;5018931;28;20029;-81
2023/03/19 00:34:32;;;;;;;5.32;1.70;;;10.40;99.90;;;-144.05;59.72;56887.06;5036871;28;20029;-79
2023/03/19 00:36:57;;;;;;;5.03;1.90;;;10.40;99.90;;;-144.05;59.43;56891.31;5035783;28;20078;-79
2023/03/19 00:39:23;;;;;;;2.88;1.80;;;10.40;99.90;;;-144.05;59.67;56906.19;5034905;28;20040;-76
2023/03/19 00:41:49;;;;;;;5.80;1.92;;;10.30;99.90;;;-144.05;59.47;56887.06;5035442;28;20051;-78
2023/03/19 00:44:18;;;;;;;4.70;1.98;;;10.20;99.90;;;-144.05;59.87;56908.31;5017664;28;20032;-78
2023/03/19 00:46:45;;;;;;;6.75;1.83;;;10.20;99.90;;;-144.05;59.91;56889.19;5017690;28;20040;-79
2023/03/19 00:49:11;;;;;;;6.32;2.03;;;10.20;99.90;;;-144.05;60.11;56887.06;5017897;28;20025;-80
2023/03/19 00:51:42;;;;;;;3.70;2.08;;;10.10;99.90;;;-144.05;60.08;56895.56;5036749;28;20022;-80
2023/03/19 00:54:10;;;;;;;5.40;2.22;;;10.20;99.90;;;-144.05;60.24;56895.56;5037024;28;20112;-81
2023/03/19 00:56:36;;;;;;;4.68;2.00;;;10.20;99.90;;;-144.05;59.91;56916.81;5036715;28;20017;-81
2023/03/19 00:59:02;;;;;;;4.20;2.28;;;10.30;99.90;;;-144.05;59.58;56884.94;5035939;28;20061;-82
2023/03/19 01:01:30;;;;;;;6.72;2.22;;;10.40;99.90;;;-144.05;58.83;56895.56;5018839;28;20030;-80
2023/03/19 01:03:57;;;;;;;6.80;2.53;;;10.60;99.90;;;-144.05;58.33;56895.56;5037215;28;20045;-79
2023/03/19 01:06:23;;;;;;;4.80;1.83;;;10.60;99.90;;;-144.05;58.36;56895.56;5018621;28;20167;-80
2023/03/19 01:08:49;;;;;;;6.18;2.58;;;10.60;99.90;;;-144.05;58.09;56908.31;5036527;28;20091;-82
2023/03/19 01:11:16;;;;;;;6.20;2.58;;;10.60;99.90;;;-144.05;59.26;56904.06;5037247;28;20041;-82
2023/03/19 01:13:42;;;;;;;5.60;2.45;;;10.50;99.90;;;-144.05;59.63;56895.56;5037156;28;20025;-78
2023/03/19 01:16:08;;;;;;;5.15;2.47;;;10.40;99.90;;;-144.05;59.17;56918.94;5036689;28;20033;-80
2023/03/19 01:18:35;;;;;;;4.93;1.95;;;10.30;99.90;;;-144.05;59.24;56906.19;5035710;28;20504;-79
2023/03/19 01:21:01;;;;;;;5.05;2.65;;;10.30;99.90;;;-144.05;59.05;56904.06;5036136;28;20029;-82
2023/03/19 01:23:28;;;;;;;4.88;2.30;;;10.40;99.90;;;-144.05;59.05;56887.06;5018671;28;20112;-82
2023/03/19 01:25:55;;;;;;;4.35;2.42;;;10.40;99.90;;;-144.05;59.81;56889.19;5019241;28;20040;-81
2023/03/19 01:28:22;;;;;;;8.70;2.13;;;10.20;99.90;;;-144.05;59.93;56891.31;5035121;28;20500;-80
2023/03/19 01:30:48;;;;;;;5.68;2.00;;;10.10;99.90;;;-144.05;59.87;56889.19;5034757;28;20033;-77
2023/03/19 01:33:14;;;;;;;7.78;2.50;;;9.90;99.90;;;-144.05;59.99;56927.41;5035078;28;20055;-78
2023/03/19 01:35:42;;;;;;;7.53;2.15;;;9.90;99.90;;;-144.05;61.13;56901.94;5017066;28;20029;-81
2023/03/19 01:38:08;;;;;;;7.15;2.58;;;9.60;99.90;;;-144.05;62.16;56912.56;5034146;28;20041;-79
2023/03/19 01:40:34;;;;;;;3.80;1.90;;;9.60;99.90;;;-144.05;61.71;56908.31;5017496;28;20065;-80
2023/03/19 01:43:20;;;;;;;5.50;2.38;;;9.50;99.90;;;-144.05;62.30;56895.56;5035865;28;20484;-79
2023/03/19 01:45:54;;;;;;;5.50;2.50;;;9.40;99.90;;;-144.05;62.47;56918.94;5034596;28;20044;-81
2023/03/19 01:48:37;;;;;;;4.88;2.17;;;9.40;99.90;;;-144.05;62.58;56882.81;5017918;28;20041;-81
2023/03/19 01:51:07;;;;;;;5.60;2.40;;;9.40;99.90;;;-144.05;62.61;56908.31;5018273;28;20049;-80
2023/03/19 01:53:38;;;;;;;6.75;2.60;;;9.40;99.90;;;-144.05;62.62;56918.94;5018090;28;20040;-80
2023/03/19 01:56:22;;;;;;;7.43;2.58;;;9.30;99.90;;;-144.05;63.01;56897.69;5035989;28;20025;-80
2023/03/19 01:58:55;;;;;;;4.22;2.60;;;9.40;99.90;;;-144.05;63.31;56893.44;5017741;28;20064;-79
2023/03/19 02:01:22;;;;;;;3.75;2.22;;;9.40;99.90;;;-144.05;63.20;56925.28;5035927;28;20064;-80
2023/03/19 02:03:51;;;;;;;6.35;3.03;;;9.20;99.90;;;-144.05;63.20;56895.56;5017428;28;20048;-80
2023/03/19 02:06:20;;;;;;;8.40;2.78;;;9.20;99.90;;;-144.05;63.42;56931.66;5035585;28;20506;-79
2023/03/19 02:08:50;;;;;;;5.97;2.35;;;9.10;99.90;;;-144.05;63.82;56916.81;5035275;28;20033;-81
2023/03/19 02:11:19;;;;;;;7.22;3.00;;;9.10;99.90;;;-144.05;64.03;56910.44;5035789;28;20056;-81
2023/03/19 02:13:46;;;;;;;7.72;2.85;;;9.10;99.90;;;-144.05;64.17;56942.28;5035197;28;20029;-80
2023/03/19 02:16:13;;;;;;;6.40;2.58;;;9.00;99.90;;;-144.05;64.66;56895.56;5035046;28;20499;-82
2023/03/19 02:18:40;;;;;;;5.53;2.80;;;8.80;99.90;;;-144.05;65.10;56910.44;5035465;28;20061;-82
2023/03/19 02:21:13;;;;;;;5.70;2.80;;;8.80;99.90;;;-144.05;65.72;56904.06;5035133;28;20026;-79
2023/03/19 02:24:23;;;;;;;6.03;2.80;;;8.60;99.90;;;-144.05;65.87;56908.31;5017869;28;20377;-82
2023/03/19 02:26:50;;;;;;;5.13;2.78;;;8.50;99.90;;;-144.05;65.93;56925.28;5017881;28;20603;-80
2023/03/19 02:29:16;;;;;;;7.93;4.10;;;8.30;99.90;;;-144.05;66.50;56925.28;5034307;28;20029;-79
2023/03/19 02:31:42;;;;;;;9.15;3.92;;;8.10;99.90;;;-144.05;67.33;56897.69;5016149;28;20515;-79
2023/03/19 02:34:20;;;;;;;6.75;3.83;;;8.00;99.90;;;-144.05;68.42;56891.31;5034111;28;20029;-83
2023/03/19 02:37:04;;;;;;;7.15;3.38;;;7.90;99.90;;;-144.05;69.46;56893.44;5033025;28;20030;-82
2023/03/19 02:39:48;;;;;;;6.30;3.22;;;7.90;99.90;;;-144.05;69.85;56914.69;5016278;28;20029;-80
2023/03/19 02:42:17;;;;;;;6.70;3.30;;;7.90;99.90;;;-144.05;70.83;56916.81;5035017;28;20104;-82
2023/03/19 02:44:43;;;;;;;7.95;3.35;;;7.90;99.90;;;-144.05;70.70;56899.81;5035446;28;20029;-83
2023/03/19 02:47:09;;;;;;;10.73;3.35;;;7.90;99.90;;;-144.05;72.43;56925.28;5017872;28;20026;-81
2023/03/19 02:49:35;;;;;;;7.45;2.58;;;7.90;99.90;;;-144.05;71.94;56908.31;5035102;28;20029;-81
2023/03/19 02:52:01;;;;;;;5.32;2.75;;;8.00;99.90;;;-144.05;71.17;56910.44;5017281;28;20034;-82
2023/03/19 02:54:28;;;;;;;8.63;2.85;;;8.00;99.90;;;-144.05;70.81;56916.81;5017283;28;20451;-80
2023/03/19 02:56:54;;;;;;;7.97;2.90;;;8.00;99.90;;;-144.05;70.24;56921.06;5034801;28;20033;-81
2023/03/19 02:59:20;;;;;;;5.15;2.75;;;7.90;99.90;;;-144.05;70.57;56914.69;5035117;28;20097;-80
2023/03/19 03:01:46;;;;;;;5.78;3.15;;;7.80;99.90;;;-144.05;70.63;56916.81;5036717;28;20033;-80
2023/03/19 03:04:15;;;;;;;7.93;2.95;;;7.70;99.90;;;-144.05;73.12;56908.31;5037035;28;20029;-81
2023/03/19 03:06:42;;;;;;;6.93;2.80;;;7.80;99.90;;;-144.05;72.56;56918.94;5035843;28;20033;-80
2023/03/19 03:09:11;;;;;;;6.45;2.80;;;8.10;99.90;;;-144.05;71.23;56933.78;5036638;28;20025;-82
2023/03/19 03:11:39;;;;;;;3.53;2.35;;;8.20;99.90;;;-144.05;70.91;56925.28;5018474;28;20029;-80
2023/03/19 03:14:06;;;;;;;6.10;3.25;;;8.30;99.90;;;-144.05;70.34;56929.53;5035894;28;20021;-81
2023/03/19 03:16:32;;;;;;;6.38;2.55;;;8.40;99.90;;;-144.05;70.34;56904.06;5035615;28;20021;-81
2023/03/19 03:18:59;;;;;;;6.47;2.65;;;8.50;99.90;;;-144.05;70.44;56921.06;5017048;28;20030;-81
2023/03/19 03:21:25;;;;;;;5.63;2.00;;;8.70;99.90;;;-144.05;69.71;56921.06;5035861;28;20060;-81
2023/03/19 03:23:51;;;;;;;5.63;2.42;;;8.90;99.90;;;-144.05;69.45;56908.31;5035968;28;20036;-80
2023/03/19 03:26:17;;;;;;;4.05;1.95;;;9.10;99.90;;;-144.05;68.18;56912.56;5017303;28;20033;-78
2023/03/19 03:28:43;;;;;;;9.02;2.28;;;9.30;99.90;;;-144.05;67.17;56906.19;5036834;28;20339;-80
2023/03/19 03:31:09;;;;;;;6.43;2.15;;;9.60;99.90;;;-144.05;66.19;56895.56;5037549;28;20087;-80
2023/03/19 03:33:35;;;;;;;9.18;2.75;;;9.70;99.90;;;-144.05;65.53;56893.44;5018392;28;20028;-81
2023/03/19 03:36:01;;;;;;;4.07;1.90;;;10.00;99.90;;;-144.05;64.76;56895.56;5017784;28;20370;-82
2023/03/19 03:38:27;;;;;;;4.20;2.15;;;10.00;99.90;;;-144.05;64.23;56912.56;5017765;28;20423;-79
2023/03/19 03:40:54;;;;;;;4.53;2.10;;;10.10;99.90;;;-144.05;63.99;56897.69;5017636;28;20098;-83
2023/03/19 03:43:20;;;;;;;6.38;2.33;;;10.10;99.90;;;-144.05;63.86;56887.06;5036104;28;20041;-80
2023/03/19 03:45:47;;;;;;;4.43;1.90;;;10.20;99.90;;;-144.05;63.60;56882.81;5018134;28;20054;-82
2023/03/19 03:48:15;;;;;;;5.88;3.00;;;10.10;99.90;;;-144.05;63.45;56901.94;5031679;28;20044;-79
2023/03/19 03:50:41;;;;;;;4.55;2.17;;;10.30;99.90;;;-144.05;63.12;56889.19;5052257;28;20033;-79
2023/03/19 03:53:07;;;;;;;5.90;2.65;;;10.30;99.90;;;-144.05;62.93;56899.81;5052763;28;20093;-80
2023/03/19 03:55:34;;;;;;;8.10;2.38;;;10.40;99.90;;;-144.05;62.79;56884.94;5034331;28;20071;-80
2023/03/19 03:58:00;;;;;;;6.13;1.70;;;10.40;99.90;;;-144.05;62.49;56889.19;5034537;28;20089;-79
2023/03/19 04:00:26;;;;;;;4.43;2.20;;;10.40;99.90;;;-144.05;62.84;56901.94;5049166;28;20036;-80
2023/03/19 04:02:52;;;;;;;5.35;1.75;;;10.40;99.90;;;-144.05;62.21;56870.06;5038860;28;20365;-81
2023/03/19 04:05:18;;;;;;;2.90;1.63;;;10.60;99.90;;;-144.05;62.26;56923.19;5016618;28;20033;-82
2023/03/19 04:07:44;;;;;;;3.35;2.03;;;10.70;99.90;;;-144.05;62.26;56882.81;5033558;28;20103;-81
2023/03/19 04:10:11;;;;;;;6.22;2.20;;;10.60;99.90;;;-144.05;62.43;56889.19;5033326;28;20117;-80
2023/03/19 04:12:38;;;;;;;6.22;2.30;;;10.70;99.90;;;-144.05;63.18;56910.44;5015154;28;20064;-82
2023/03/19 04:15:08;;;;;;;4.82;1.67;;;10.80;99.90;;;-144.05;63.06;56912.56;5031530;28;20030;-80
2023/03/19 04:17:34;;;;;;;3.50;1.52;;;10.60;99.90;;;-144.05;63.54;56918.94;5013874;28;20040;-80
2023/03/19 04:20:03;;;;;;;3.20;1.92;;;10.70;99.90;;;-144.05;63.70;56884.94;5031453;28;20021;-79
2023/03/19 04:22:30;;;;;;;4.85;2.22;;;10.60;99.90;;;-144.05;64.05;56921.06;5031339;28;20022;-78
2023/03/19 04:24:56;;;;;;;4.72;1.90;;;10.50;99.90;;;-144.05;64.05;56893.44;5031756;28;20552;-79
2023/03/19 04:27:22;;;;;;;5.68;2.05;;;10.60;99.90;;;-144.05;64.04;56921.06;5031338;28;20036;-81
2023/03/19 04:29:48;;;;;;;4.70;1.80;;;10.50;99.90;;;-144.05;63.83;56893.44;5014313;28;20029;-80
2023/03/19 04:32:15;;;;;;;5.70;2.17;;;10.50;99.90;;;-144.05;63.96;56908.31;5015048;28;20099;-81
2023/03/19 04:34:41;;;;;;;4.10;1.80;;;10.60;99.90;;;-144.05;63.91;56893.44;5014571;28;20029;-79
2023/03/19 04:37:09;;;;;;;5.18;2.13;;;10.50;99.90;;;-144.05;64.15;56906.19;5014221;28;20025;-80
2023/03/19 04:39:36;;;;;;;3.63;1.60;;;10.50;99.90;;;-144.05;63.55;56906.19;5014181;28;20033;-78
2023/03/19 04:42:03;;;;;;;6.57;2.10;;;10.50;99.90;;;-144.05;63.69;56908.31;5014844;28;20199;-82
2023/03/19 04:44:30;;;;;;;6.25;1.90;;;10.50;99.90;;;-144.05;63.36;56912.56;5015026;28;20065;-81
2023/03/19 04:46:56;;;;;;;5.25;2.22;;;10.50;99.90;;;-144.05;63.59;56887.06;5015384;28;20025;-80
2023/03/19 04:49:26;;;;;;;3.05;1.75;;;10.50;99.90;;;-144.05;63.50;56891.31;5032722;28;20151;-79
2023/03/19 04:51:52;;;;;;;5.00;2.05;;;10.60;99.90;;;-144.05;63.21;56901.94;5034237;28;20026;-80
2023/03/19 04:54:17;;;;;;;5.75;2.17;;;10.50;99.90;;;-144.05;63.26;56889.19;5033430;28;20043;-80
2023/03/19 04:56:43;;;;;;;4.32;1.88;;;10.60;99.90;;;-144.05;63.24;56895.56;5033120;28;20036;-81
2023/03/19 04:59:09;;;;;;;2.80;1.55;;;10.50;99.90;;;-144.05;63.54;56912.56;5033269;28;20038;-80
2023/03/19 05:01:35;;;;;;;5.95;1.88;;;10.40;99.90;;;-144.05;63.84;56910.44;5032894;28;20025;-80
2023/03/19 05:04:01;;;;;;;4.13;1.58;;;10.60;99.90;;;-144.05;63.14;56910.44;5032445;28;20029;-81
2023/03/19 05:06:28;;;;;;;4.80;1.88;;;10.80;99.90;;;-144.05;63.16;56916.81;5032432;28;20029;-81
2023/03/19 05:08:54;;;;;;;3.85;1.40;;;10.90;99.90;;;-144.05;62.61;56927.41;5013666;28;20065;-80
2023/03/19 05:11:20;;;;;;;4.78;1.42;;;11.00;99.90;;;-144.05;62.38;56908.31;5014701;28;20053;-78
2023/03/19 05:13:46;;;;;;;5.13;1.33;;;10.90;99.90;;;-144.05;62.48;56901.94;5018099;28;20037;-80
2023/03/19 05:16:12;;;;;;;4.00;1.65;;;10.80;99.90;;;-144.05;62.45;56887.06;5036096;28;20279;-79
2023/03/19 05:18:38;;;;;;;3.72;2.30;;;10.90;99.90;;;-144.05;62.33;56906.19;5036514;28;20034;-81
2023/03/19 05:21:05;;;;;;;4.40;2.03;;;10.90;99.90;;;-144.05;62.43;56925.28;5018258;28;20091;-80
2023/03/19 05:23:31;;;;;;;3.38;2.10;;;10.80;99.90;;;-144.05;62.47;56901.94;5036917;28;20056;-79
2023/03/19 05:26:00;;;;;;;5.53;1.85;;;10.80;99.90;;;-144.05;62.74;56891.31;5036642;28;20493;-79
2023/03/19 05:28:27;;;;;;;2.35;1.88;;;10.80;99.90;;;-144.05;62.65;56891.31;5036271;28;20057;-79
2023/03/19 05:30:53;;;;;;;6.05;1.92;;;10.70;99.90;;;-144.05;62.42;56884.94;5018512;28;20033;-78
2023/03/19 05:33:19;;;;;;;5.50;1.70;;;10.70;99.90;;;-144.05;62.38;56904.06;5036620;28;20121;-80
2023/03/19 05:35:44;;;;;;;3.88;1.67;;;10.60;99.90;;;-144.05;62.55;56893.44;5036224;28;20041;-79
2023/03/19 05:38:11;;;;;;;4.53;2.47;;;10.60;99.90;;;-144.05;62.89;56876.44;5035892;28;20090;-79
2023/03/19 05:40:40;;;;;;;3.97;2.00;;;10.50;99.90;;;-144.05;63.34;56923.19;5018175;28;20071;-79
2023/03/19 05:43:08;;;;;;;11.57;2.33;;;10.40;99.90;;;-144.05;63.33;56891.31;5017884;28;20029;-79
2023/03/19 05:45:35;;;;;;;4.97;1.98;;;10.40;99.90;;;-144.05;63.48;56901.94;5035167;28;20025;-80
2023/03/19 05:48:02;;;;;;;6.72;1.85;;;10.30;99.90;;;-144.05;63.55;56901.94;5033567;28;20038;-80
2023/03/19 05:50:28;;;;;;;6.68;2.13;;;10.30;99.90;;;-144.05;64.06;56891.31;5034665;28;20121;-81
2023/03/19 05:52:54;;;;;;;5.18;2.20;;;10.20;99.90;;;-144.05;64.19;56910.44;5035352;28;20535;-80
2023/03/19 05:55:20;;;;;;;4.65;2.03;;;10.20;99.90;;;-144.05;64.28;56912.56;5035574;28;20034;-79
2023/03/19 05:57:46;;;;;;;4.45;2.03;;;10.20;99.90;;;-144.05;64.31;56929.53;5035465;28;20087;-79
2023/03/19 06:00:14;;;;;;;5.30;2.05;;;10.30;99.90;;;-144.05;64.35;56914.69;5035120;28;20558;-80
2023/03/19 06:02:41;;;;;;;2.88;1.70;;;10.20;99.90;;;-144.05;64.33;56908.31;5017612;28;20502;-79
2023/03/19 06:05:09;;;;;;;5.13;1.92;;;10.30;99.90;;;-144.05;63.57;56887.06;5017187;28;20022;-81
2023/03/19 06:07:36;;;;;;;4.78;1.80;;;10.40;99.90;;;-144.05;63.23;56901.94;5034030;28;20032;-80
2023/03/19 06:10:04;;;;;;;3.30;1.65;;;10.60;99.90;;;-144.05;62.92;56889.19;5024412;28;20497;-80
2023/03/19 06:12:30;;;;;;;4.28;1.73;;;10.60;99.90;;;-144.05;63.03;56897.69;5035374;28;20089;-79
2023/03/19 06:14:56;;;;;;;4.32;1.40;;;10.70;99.90;;;-144.05;63.07;56914.69;5034108;28;20106;-81
2023/03/19 06:17:22;;;;;;;2.53;1.42;;;10.80;99.90;;;-144.05;62.49;56916.81;5033999;28;20056;-79
2023/03/19 06:19:48;;;;;;;4.80;1.85;;;10.80;99.90;;;-144.05;62.28;56908.31;5015740;28;20030;-79
2023/03/19 06:22:14;;;;;;;6.30;1.95;;;10.90;99.90;;;-144.05;62.29;56921.06;5016205;28;20091;-79
2023/03/19 06:24:40;;;;;;;6.28;2.17;;;11.00;99.90;;;-144.05;61.60;56908.31;5033939;28;20362;-80
2023/03/19 06:27:06;;;;;;;3.45;2.20;;;11.00;99.90;;;-144.05;61.45;56916.81;5034199;28;20029;-80
2023/03/19 06:29:32;;;;;;;6.95;1.80;;;11.00;99.90;;;-144.05;61.38;56906.19;5037474;28;20083;-80
2023/03/19 06:31:57;;;;;;;5.43;2.15;;;11.00;99.90;;;-144.05;61.18;56904.06;5035837;28;20076;-80
2023/03/19 06:34:23;;;;;;;5.95;1.88;;;11.00;99.90;;;-144.05;61.11;56927.41;5017643;28;20449;-81
2023/03/19 06:36:52;;;;;;;2.72;1.63;;;11.00;99.90;;;-144.05;61.30;56887.06;5034024;28;20025;-80
2023/03/19 06:39:20;;;;;;;3.17;1.55;;;11.10;99.90;;;-144.05;61.43;56887.06;5016972;28;20032;-80
2023/03/19 06:41:46;;;;;;;3.85;1.65;;;11.10;99.90;;;-144.05;61.41;56880.69;5033778;28;20489;-79
2023/03/19 06:44:12;;;;;;;3.53;1.58;;;11.20;99.90;;;-144.05;61.87;56908.31;5033659;28;20032;-80
2023/03/19 06:46:37;;;;;;;8.40;2.25;;;11.20;99.90;;;-144.05;61.89;56887.06;5033656;28;20393;-80
2023/03/19 06:49:03;;;;;;;5.38;1.67;;;11.20;99.90;;;-144.05;62.20;56891.31;5032930;28;20060;-79
2023/03/19 06:51:29;;;;;;;5.38;1.70;;;11.20;99.90;;;-144.05;62.70;56904.06;5015422;28;20374;-78
2023/03/19 06:53:55;;;;;;;8.45;2.63;;;11.20;99.90;;;-144.05;63.88;56889.19;5018352;28;20032;-79
2023/03/19 06:56:21;;;;;;;4.35;2.00;;;11.10;99.90;;;-144.05;64.23;56895.56;5017597;28;20022;-80
2023/03/19 06:58:47;;;;;;;3.33;2.28;;;11.10;99.90;;;-144.05;64.70;56895.56;5033137;28;20044;-79
2023/03/19 07:01:13;;;;;;;4.68;2.42;;;11.10;99.90;;;-144.05;65.05;56912.56;5036356;28;20588;-78
2023/03/19 07:03:39;;;;;;;5.80;2.25;;;11.10;99.90;;;-144.05;64.59;56884.94;5035579;28;20029;-79
2023/03/19 07:06:06;;;;;;;3.90;2.30;;;11.10;99.90;;;-144.05;65.00;56908.31;5033389;28;20036;-80
2023/03/19 07:08:32;;;;;;;4.25;2.30;;;11.10;99.90;;;-144.05;64.70;56923.19;5032237;28;20437;-79
2023/03/19 07:11:06;;;;;;;4.40;2.22;;;11.10;99.90;;;-144.05;64.82;56891.31;5014880;28;20025;-80
2023/03/19 07:13:33;;;;;;;4.63;2.20;;;11.10;99.90;;;-144.05;64.72;56876.44;5014846;28;20040;-82
2023/03/19 07:16:00;;;;;;;3.10;2.10;;;11.10;99.90;;;-144.05;64.52;56904.06;5034897;28;20022;-79
2023/03/19 07:18:26;;;;;;;4.90;1.98;;;11.20;99.90;;;-144.05;64.85;56908.31;5034718;28;20060;-79
2023/03/19 07:20:52;;;;;;;6.18;2.38;;;11.20;99.90;;;-144.05;64.32;56901.94;5034891;28;20025;-80
2023/03/19 07:23:18;;;;;;;3.10;1.45;;;11.30;99.90;;;-144.05;64.32;56895.56;5034090;28;20099;-82
2023/03/19 07:25:45;;;;;;;5.95;1.88;;;11.50;99.90;;;-144.05;63.00;56895.56;5033866;28;20025;-80
2023/03/19 07:28:12;;;;;;;5.60;1.73;;;11.80;99.90;;;-144.05;61.70;56878.56;5033629;28;20040;-80
2023/03/19 07:30:38;;;;;;;3.05;2.00;;;12.00;99.90;;;-144.05;60.72;56874.31;5033416;28;20029;-80
2023/03/19 07:33:06;;;;;;;6.60;2.38;;;12.10;99.90;;;-144.05;61.37;56884.94;5015958;28;20041;-80
2023/03/19 07:35:33;;;;;;;3.92;1.83;;;12.10;99.90;;;-144.05;61.02;56893.44;5033342;28;20112;-80
2023/03/19 07:38:01;;;;;;;3.33;1.92;;;12.20;99.90;;;-144.05;61.21;56912.56;5015876;28;20508;-80
2023/03/19 07:40:27;;;;;;;3.33;1.98;;;12.10;99.90;;;-144.05;61.57;56897.69;5034233;28;20053;-79
2023/03/19 07:42:53;;;;;;;5.43;2.13;;;12.20;99.90;;;-144.05;61.52;56878.56;5019115;28;20025;-82
2023/03/19 07:45:19;;;;;;;3.33;2.05;;;12.20;99.90;;;-144.05;61.22;56872.19;5036319;28;20055;-81
2023/03/19 07:47:46;;;;;;;4.63;2.00;;;12.10;99.90;;;-144.05;61.23;56887.06;5034618;28;20034;-80
2023/03/19 07:50:12;;;;;;;6.70;2.25;;;12.10;99.90;;;-144.05;61.54;56901.94;5015667;28;20036;-79
2023/03/19 07:52:38;;;;;;;4.65;2.40;;;12.20;99.90;;;-144.05;61.57;56912.56;5031868;28;20034;-78
2023/03/19 07:55:04;;;;;;;2.80;2.10;;;12.10;99.90;;;-144.05;61.92;56878.56;5032205;28;20454;-79
2023/03/19 07:57:31;;;;;;;3.55;2.50;;;12.10;99.90;;;-144.05;61.77;56878.56;5032726;28;20048;-78
2023/03/19 07:59:57;;;;;;;4.40;2.05;;;12.10;99.90;;;-144.05;62.54;56906.19;5031859;28;20033;-79
2023/03/19 08:02:23;;;;;;;3.67;2.13;;;12.10;99.90;;;-144.05;63.19;56918.94;5032814;28;20034;-79
2023/03/19 08:04:50;;;;;;;4.82;2.25;;;12.10;99.90;;;-144.05;62.92;56882.81;5015093;28;20044;-79
2023/03/19 08:07:16;;;;;;;5.63;1.95;;;12.00;99.90;;;-144.05;63.65;56895.56;5014458;28;20072;-82
2023/03/19 08:09:42;;;;;;;8.27;2.58;;;11.90;99.90;;;-144.05;65.11;56904.06;5014383;28;20037;-82
2023/03/19 08:12:08;;;;;;;5.60;2.28;;;11.80;99.90;;;-144.05;66.95;56891.31;5033595;28;20120;-82
2023/03/19 08:14:34;;;;;;;4.60;2.42;;;11.60;99.90;;;-144.05;67.39;56893.44;5016488;28;20034;-81
2023/03/19 08:17:01;;;;;;;4.50;2.35;;;11.50;99.90;;;-144.05;68.62;56895.56;5016550;28;20029;-82
2023/03/19 08:19:27;;;;;;;4.07;2.38;;;11.40;99.90;;;-144.05;69.03;56889.19;5034057;28;20033;-83
2023/03/19 08:21:52;;;;;;;4.00;2.45;;;11.40;99.90;;;-144.05;69.43;56884.94;5016851;28;20029;-82
2023/03/19 08:24:18;;;;;;;4.25;2.53;;;11.50;99.90;;;-144.05;70.14;56870.06;5034849;28;20032;-80
2023/03/19 08:26:45;;;;;;;5.30;2.75;;;11.90;99.90;;;-144.05;68.75;56887.06;5015979;28;20041;-79
2023/03/19 08:29:11;;;;;;;4.25;2.33;;;12.50;99.90;;;-144.05;65.99;56857.34;5016082;28;20030;-82
2023/03/19 08:31:37;;;;;;;3.30;1.90;;;12.70;99.90;;;-144.05;64.96;56895.56;5034152;28;20029;-83
2023/03/19 08:34:03;;;;;;;4.22;2.25;;;12.60;99.90;;;-144.05;64.46;56887.06;5016252;28;20040;-83
2023/03/19 08:36:31;;;;;;;4.55;2.05;;;12.50;99.90;;;-144.05;65.55;56901.94;5033310;28;20026;-83
2023/03/19 08:38:57;;;;;;;5.75;2.17;;;12.50;99.90;;;-144.05;65.38;56895.56;5016663;28;20032;-83
2023/03/19 08:41:24;;;;;;;4.50;2.42;;;12.60;99.90;;;-144.05;64.50;56891.31;5015540;28;20370;-81
2023/03/19 08:43:50;;;;;;;7.70;3.60;;;12.60;99.90;;;-144.05;63.86;56897.69;5032967;28;20378;-82
2023/03/19 08:46:17;;;;;;;6.55;3.22;;;12.60;99.90;;;-144.05;64.89;56912.56;5018166;28;20078;-82
2023/03/19 08:48:43;;;;;;;5.13;3.45;;;12.60;99.90;;;-144.05;64.79;56899.81;5038342;28;20037;-84
2023/03/19 08:51:10;;;;;;;6.75;4.47;;;12.50;99.90;;;-144.05;65.45;56882.81;5038549;28;20030;-84
2023/03/19 08:53:38;;;;;;;8.77;4.32;;;12.30;99.90;;;-144.05;65.41;56895.56;5037569;28;20497;-79
2023/03/19 08:56:06;;;;;;;9.52;5.03;;;12.20;99.90;;;-144.05;65.26;56895.56;5036989;28;20030;-81
2023/03/19 08:58:33;;;;;;;7.22;4.70;;;12.10;99.90;;;-144.05;64.33;56906.19;5036390;28;20041;-81
2023/03/19 09:01:08;;;;;;;7.38;5.57;;;12.10;99.90;;;-144.05;65.06;56908.31;5037336;28;20497;-80
2023/03/19 09:03:36;;;;;;;6.32;4.43;;;12.10;99.90;;;-144.05;64.54;56901.94;5036804;28;20025;-82
2023/03/19 09:06:07;;;;;;;5.45;3.95;;;12.10;99.90;;;-144.05;64.71;56925.28;5036403;28;20037;-80
2023/03/19 09:08:35;;;;;;;6.32;3.75;;;12.10;99.90;;;-144.05;64.44;56895.56;5036598;28;20116;-78
2023/03/19 09:11:02;;;;;;;5.63;3.63;;;12.10;99.90;;;-144.05;63.83;56916.81;5020716;28;20033;-77
2023/03/19 09:13:28;;;;;;;6.47;4.22;;;12.20;99.90;;;-144.05;63.86;56887.06;5022511;28;20060;-81
2023/03/19 09:15:54;;;;;;;8.00;4.40;;;12.20;99.90;;;-144.05;63.65;56891.31;5038610;28;20426;-80
2023/03/19 09:18:22;;;;;;;7.22;4.93;;;12.20;99.90;;;-144.05;64.60;56904.06;5018801;28;20480;-84
2023/03/19 09:20:49;;;;;;;6.35;4.25;;;12.10;99.90;;;-144.05;65.11;56906.19;5018705;28;20029;-82
2023/03/19 09:23:15;;;;;;;6.53;4.28;;;12.00;99.90;;;-144.05;65.58;56895.56;5019790;28;20288;-79
2023/03/19 09:25:41;;;;;;;6.07;4.00;;;11.90;99.90;;;-144.05;65.53;56895.56;5039829;28;20044;-78
2023/03/19 09:28:07;;;;;;;7.15;3.25;;;11.90;99.90;;;-144.05;65.87;56889.19;5019593;28;20053;-78
2023/03/19 09:30:33;;;;;;;4.45;2.72;;;11.90;99.90;;;-144.05;66.01;56882.81;5018780;28;20083;-80
2023/03/19 09:32:59;;;;;;;4.75;3.20;;;11.90;99.90;;;-144.05;66.00;56906.19;5038628;28;20109;-78
2023/03/19 09:35:30;;;;;;;5.40;3.33;;;12.00;99.90;;;-144.05;66.03;56908.31;5037185;28;20026;-80
2023/03/19 09:37:57;;;;;;;5.15;2.97;;;12.10;99.90;;;-144.05;64.73;56891.31;5037581;28;20089;-80
2023/03/19 09:40:41;;;;;;;4.75;3.03;;;12.20;99.90;;;-144.05;65.40;56887.06;5036505;28;20049;-80
2023/03/19 09:43:15;;;;;;;3.60;2.80;;;12.30;99.90;;;-144.05;64.92;56880.69;5036933;28;20027;-80
2023/03/19 09:45:45;;;;;;;3.92;2.70;;;12.40;99.90;;;-144.05;64.13;56887.06;5017801;28;20124;-80
2023/03/19 09:48:41;;;;;;;7.50;2.83;;;12.60;99.90;;;-144.05;64.13;56891.31;5035225;28;20036;-78
2023/03/19 09:51:26;;;;;;;4.28;2.55;;;12.80;99.90;;;-144.05;62.50;56882.81;5036314;28;20030;-78
2023/03/19 09:54:06;;;;;;;3.70;2.13;;;12.90;99.90;;;-144.05;62.96;56912.56;5017013;28;20091;-79
2023/03/19 09:56:32;;;;;;;5.47;3.13;;;12.80;99.90;;;-144.05;62.89;56904.06;5018138;28;20124;-79
2023/03/19 09:58:59;;;;;;;6.03;2.45;;;12.90;99.90;;;-144.05;62.50;56893.44;5034064;28;20034;-78
2023/03/19 10:01:34;;;;;;;4.05;2.65;;;12.90;99.90;;;-144.05;62.48;56895.56;5036411;28;20496;-79
2023/03/19 10:04:29;;;;;;;3.85;2.55;;;12.90;99.90;;;-144.05;63.00;56897.69;5018221;28;20021;-80
2023/03/19 10:07:53;;;;;;;2.55;1.95;;;12.90;99.90;;;-144.05;62.25;56878.56;5017441;28;20128;-79
2023/03/19 10:11:03;;;;;;;3.67;1.92;;;13.00;99.90;;;-144.05;61.52;56901.94;5034946;28;20030;-78